createdAt,value
2019-03-28T00:00:12.707Z,14.57
2019-03-28T00:02:42.143Z,14.50
2019-03-28T00:05:11.684Z,15.67
2019-03-28T00:07:41.069Z,13.77
2019-03-28T00:10:10.718Z,15.73
2019-03-28T00:12:40.340Z,13.90
2019-03-28T00:15:10.089Z,14.77
2019-03-28T00:17:39.483Z,13.90
2019-03-28T00:20:10.032Z,15.80
2019-03-28T00:22:57.633Z,13.93
2019-03-28T00:25:27.098Z,14.40
2019-03-28T00:27:56.491Z,16.03
2019-03-28T00:30:25.881Z,14.03
2019-03-28T00:32:55.273Z,16.40
2019-03-28T00:35:24.661Z,15.10
2019-03-28T00:37:54.055Z,16.63
2019-03-28T00:40:23.457Z,15.43
2019-03-28T00:42:52.852Z,14.07
2019-03-28T00:45:22.245Z,15.07
2019-03-28T00:47:51.634Z,14.13
2019-03-28T00:50:21.130Z,15.43
2019-03-28T00:52:50.518Z,16.07
2019-03-28T00:55:19.927Z,15.27
2019-03-28T00:57:49.309Z,15.60
2019-03-28T01:00:19.045Z,15.93
2019-03-28T01:02:48.435Z,15.73
2019-03-28T01:05:18.289Z,17.37
2019-03-28T01:07:47.694Z,15.23
2019-03-28T01:10:17.220Z,15.43
2019-03-28T01:12:46.606Z,17.13
2019-03-28T01:15:16.017Z,14.87
2019-03-28T01:17:45.392Z,16.77
2019-03-28T01:20:14.914Z,18.83
2019-03-28T01:22:44.307Z,17.87
2019-03-28T01:25:13.789Z,18.23
2019-03-28T01:27:43.164Z,19.47
2019-03-28T01:30:12.813Z,16.30
2019-03-28T01:32:42.302Z,16.67
2019-03-28T01:35:11.692Z,17.57
2019-03-28T01:37:41.101Z,17.83
2019-03-28T01:40:10.729Z,16.33
2019-03-28T01:42:40.120Z,18.30
2019-03-28T01:45:09.846Z,17.60
2019-03-28T01:47:39.319Z,16.73
2019-03-28T01:50:09.707Z,17.43
2019-03-28T01:52:39.099Z,16.77
2019-03-28T01:55:08.985Z,16.53
2019-03-28T01:57:38.374Z,17.13
2019-03-28T02:00:12.332Z,17.37
2019-03-28T02:02:41.931Z,17.60
2019-03-28T02:05:11.618Z,18.50
2019-03-28T02:07:41.010Z,18.50
2019-03-28T02:10:10.738Z,18.40
2019-03-28T02:12:40.126Z,17.10
2019-03-28T02:15:10.225Z,17.57
2019-03-28T02:17:39.637Z,17.60
2019-03-28T02:20:10.453Z,17.83
2019-03-28T02:22:39.902Z,17.40
2019-03-28T02:25:10.801Z,17.00
2019-03-28T02:27:41.393Z,17.87
2019-03-28T02:30:14.050Z,18.63
2019-03-28T02:32:43.442Z,19.53
2019-03-28T02:35:13.000Z,17.47
2019-03-28T02:37:43.387Z,18.67
2019-03-28T02:40:13.181Z,17.33
2019-03-28T02:42:42.574Z,17.87
2019-03-28T02:45:12.138Z,19.20
2019-03-28T02:47:41.518Z,18.47
2019-03-28T02:50:11.582Z,18.97
2019-03-28T02:52:41.212Z,18.10
2019-03-28T02:55:10.620Z,17.10
2019-03-28T02:57:42.330Z,16.40
2019-03-28T03:00:11.737Z,16.53
2019-03-28T03:02:41.169Z,16.43
2019-03-28T03:05:10.898Z,17.13
2019-03-28T03:07:41.745Z,16.50
2019-03-28T03:10:11.628Z,17.00
2019-03-28T03:12:41.036Z,17.00
2019-03-28T03:15:11.685Z,16.90
2019-03-28T03:17:41.624Z,17.80
2019-03-28T03:20:11.733Z,17.27
2019-03-28T03:22:41.123Z,16.23
2019-03-28T03:25:10.957Z,16.77
2019-03-28T03:27:56.291Z,16.83
2019-03-28T03:30:11.930Z,17.17
2019-03-28T03:32:41.329Z,16.63
2019-03-28T03:35:11.609Z,17.83
2019-03-28T03:37:40.997Z,15.37
2019-03-28T03:40:13.481Z,16.60
2019-03-28T03:42:42.960Z,16.27
2019-03-28T03:45:13.348Z,16.87
2019-03-28T03:47:42.744Z,16.37
2019-03-28T03:50:16.744Z,17.30
2019-03-28T03:52:46.161Z,15.93
2019-03-28T03:55:15.578Z,16.80
2019-03-28T03:57:44.987Z,17.03
2019-03-28T04:00:19.009Z,17.37
2019-03-28T04:02:48.432Z,17.60
2019-03-28T04:05:17.864Z,17.70
2019-03-28T04:07:47.264Z,18.23
2019-03-28T04:10:16.673Z,18.63
2019-03-28T04:12:46.111Z,17.80
2019-03-28T04:15:15.520Z,18.03
2019-03-28T04:17:44.908Z,18.17
2019-03-28T04:20:14.473Z,17.30
2019-03-28T04:22:43.862Z,17.60
2019-03-28T04:25:13.725Z,18.27
2019-03-28T04:27:43.338Z,19.50
2019-03-28T04:30:15.960Z,18.13
2019-03-28T04:32:45.390Z,18.23
2019-03-28T04:35:14.780Z,20.53
2019-03-28T04:37:44.191Z,18.73
2019-03-28T04:40:13.614Z,18.97
2019-03-28T04:42:45.883Z,19.43
2019-03-28T04:45:14.389Z,18.50
2019-03-28T04:47:43.806Z,18.13
2019-03-28T04:50:13.368Z,19.47
2019-03-28T04:52:42.790Z,18.37
2019-03-28T04:55:12.848Z,17.80
2019-03-28T04:57:42.310Z,18.27
2019-03-28T05:00:12.616Z,18.00
2019-03-28T05:02:42.084Z,18.60
2019-03-28T05:05:11.712Z,17.73
2019-03-28T05:07:41.110Z,18.50
2019-03-28T05:10:11.781Z,18.73
2019-03-28T05:12:41.181Z,16.57
2019-03-28T05:15:12.180Z,16.93
2019-03-28T05:17:41.657Z,18.00
2019-03-28T05:20:13.241Z,18.33
2019-03-28T05:22:42.639Z,17.73
2019-03-28T05:25:12.374Z,16.80
2019-03-28T05:27:41.825Z,17.40
2019-03-28T05:30:12.332Z,16.93
2019-03-28T05:32:41.738Z,17.27
2019-03-28T05:35:11.376Z,17.33
2019-03-28T05:37:40.767Z,17.13
2019-03-28T05:40:12.251Z,16.90
2019-03-28T05:42:41.637Z,16.93
2019-03-28T05:45:11.380Z,16.57
2019-03-28T05:47:40.791Z,17.47
2019-03-28T05:50:10.615Z,17.97
2019-03-28T05:52:40.018Z,16.90
2019-03-28T05:55:12.140Z,16.67
2019-03-28T05:57:41.546Z,18.00
2019-03-28T06:00:11.874Z,18.40
2019-03-28T06:02:41.255Z,17.27
2019-03-28T06:05:11.015Z,18.13
2019-03-28T06:07:40.430Z,16.87
2019-03-28T06:10:10.853Z,17.80
2019-03-28T06:12:40.251Z,18.77
2019-03-28T06:15:10.152Z,16.83
2019-03-28T06:17:39.542Z,17.50
2019-03-28T06:20:09.867Z,17.23
2019-03-28T06:22:39.649Z,18.50
2019-03-28T06:25:10.141Z,19.47
2019-03-28T06:27:39.534Z,19.23
2019-03-28T06:30:11.145Z,18.67
2019-03-28T06:32:43.288Z,18.67
2019-03-28T06:35:12.163Z,18.33
2019-03-28T06:37:41.568Z,18.90
2019-03-28T06:40:13.605Z,17.63
2019-03-28T06:42:42.233Z,18.87
2019-03-28T06:45:13.127Z,17.43
2019-03-28T06:47:42.515Z,16.27
2019-03-28T06:50:12.515Z,17.67
2019-03-28T06:52:41.994Z,16.63
2019-03-28T06:55:11.598Z,18.43
2019-03-28T06:57:40.998Z,16.40
2019-03-28T07:00:15.080Z,16.40
2019-03-28T07:02:44.470Z,16.47
2019-03-28T07:05:14.272Z,17.70
2019-03-28T07:07:43.662Z,17.63
2019-03-28T07:10:13.585Z,17.90
2019-03-28T07:12:42.975Z,16.50
2019-03-28T07:15:12.610Z,17.97
2019-03-28T07:17:42.003Z,17.47
2019-03-28T07:20:12.006Z,16.27
2019-03-28T07:22:41.422Z,15.70
2019-03-28T07:25:11.223Z,15.80
2019-03-28T07:27:40.617Z,15.03
2019-03-28T07:30:13.240Z,15.30
2019-03-28T07:32:43.586Z,14.53
2019-03-28T07:35:13.430Z,15.87
2019-03-28T07:37:42.823Z,14.93
2019-03-28T07:40:12.501Z,14.47
2019-03-28T07:42:43.349Z,15.43
2019-03-28T07:45:13.758Z,14.87
2019-03-28T07:47:43.151Z,13.40
2019-03-28T07:50:13.883Z,15.03
2019-03-28T07:52:44.562Z,13.77
2019-03-28T07:55:16.567Z,12.80
2019-03-28T07:57:45.399Z,13.03
2019-03-28T08:00:17.005Z,10.90
2019-03-28T08:02:46.470Z,10.83
2019-03-28T08:05:16.194Z,9.00
2019-03-28T08:07:46.979Z,8.50
2019-03-28T08:10:16.896Z,10.17
2019-03-28T08:12:46.295Z,10.23
2019-03-28T08:15:16.302Z,11.00
2019-03-28T08:17:45.688Z,10.90
2019-03-28T08:20:17.957Z,9.80
2019-03-28T08:22:47.346Z,8.17
2019-03-28T08:25:16.808Z,6.77
2019-03-28T08:27:46.200Z,6.93
2019-03-28T08:30:19.661Z,6.97
2019-03-28T08:32:47.224Z,6.63
2019-03-28T08:35:16.935Z,7.33
2019-03-28T08:37:46.731Z,6.17
2019-03-28T08:40:26.329Z,6.63
2019-03-28T08:42:55.722Z,6.27
2019-03-28T08:45:25.117Z,7.17
2019-03-28T08:47:54.502Z,7.20
2019-03-28T08:50:23.893Z,7.13
2019-03-28T08:52:53.281Z,7.63
2019-03-28T08:55:22.681Z,8.00
2019-03-28T08:57:52.070Z,8.13
2019-03-28T09:00:32.328Z,7.40
2019-03-28T09:02:52.643Z,9.23
2019-03-28T09:05:22.034Z,7.33
2019-03-28T09:07:51.422Z,7.73
2019-03-28T09:10:20.815Z,6.43
2019-03-28T09:12:50.207Z,7.20
2019-03-28T09:15:19.671Z,6.83
2019-03-28T09:17:49.057Z,6.90
2019-03-28T09:20:18.643Z,7.53
2019-03-28T09:22:48.034Z,7.20
2019-03-28T09:25:17.426Z,7.17
2019-03-28T09:27:46.817Z,7.63
2019-03-28T09:30:23.457Z,7.00
2019-03-28T09:32:52.845Z,6.87
2019-03-28T09:35:32.023Z,7.87
2019-03-28T09:38:01.406Z,7.60
2019-03-28T09:40:30.817Z,9.23
2019-03-28T09:43:00.196Z,8.97
2019-03-28T09:45:30.281Z,8.30
2019-03-28T09:47:59.847Z,8.23
2019-03-28T09:50:29.238Z,8.37
2019-03-28T09:52:58.633Z,7.80
2019-03-28T09:55:28.018Z,7.80
2019-03-28T09:57:57.411Z,7.50
2019-03-28T10:00:26.807Z,6.97
2019-03-28T10:02:56.269Z,8.20
2019-03-28T10:05:25.660Z,8.00
2019-03-28T10:07:55.046Z,8.37
2019-03-28T10:10:24.434Z,7.80
2019-03-28T10:12:53.827Z,7.73
2019-03-28T10:15:23.282Z,8.17
2019-03-28T10:17:52.671Z,7.83
2019-03-28T10:20:22.065Z,8.23
2019-03-28T10:22:51.461Z,8.10
2019-03-28T10:25:20.852Z,7.83
2019-03-28T10:27:50.245Z,7.97
2019-03-28T10:30:24.324Z,8.77
2019-03-28T10:32:53.840Z,8.20
2019-03-28T10:35:27.900Z,8.47
2019-03-28T10:37:57.290Z,8.13
2019-03-28T10:40:26.755Z,7.73
2019-03-28T10:42:56.146Z,7.90
2019-03-28T10:45:25.539Z,8.17
2019-03-28T10:47:54.929Z,7.23
2019-03-28T10:50:24.314Z,6.23
2019-03-28T10:52:53.712Z,6.37
2019-03-28T10:55:23.099Z,5.63
2019-03-28T10:57:52.494Z,5.73
2019-03-28T11:00:24.302Z,7.13
2019-03-28T11:02:53.460Z,6.53
2019-03-28T11:05:22.970Z,6.60
2019-03-28T11:07:52.363Z,6.77
2019-03-28T11:10:21.766Z,7.33
2019-03-28T11:12:51.185Z,5.70
2019-03-28T11:15:20.580Z,6.23
2019-03-28T11:17:50.150Z,6.47
2019-03-28T11:20:19.560Z,6.17
2019-03-28T11:22:48.972Z,5.80
2019-03-28T11:25:18.360Z,5.87
2019-03-28T11:27:47.817Z,7.77
2019-03-28T11:30:18.453Z,5.57
2019-03-28T11:32:47.989Z,5.70
2019-03-28T11:35:17.351Z,6.07
2019-03-28T11:37:46.741Z,5.40
2019-03-28T11:40:16.290Z,6.30
2019-03-28T11:42:45.663Z,6.60
2019-03-28T11:45:15.264Z,7.73
2019-03-28T11:47:44.659Z,10.27
2019-03-28T11:50:17.071Z,11.23
2019-03-28T11:52:45.983Z,12.93
2019-03-28T11:55:16.182Z,12.23
2019-03-28T11:57:45.574Z,12.83
2019-03-28T12:00:17.456Z,11.43
2019-03-28T12:02:46.861Z,12.50
2019-03-28T12:05:16.598Z,11.20
2019-03-28T12:07:45.994Z,11.63
2019-03-28T12:10:15.692Z,13.17
2019-03-28T12:12:45.083Z,13.10
2019-03-28T12:15:15.082Z,13.90
2019-03-28T12:17:44.480Z,15.27
2019-03-28T12:20:14.150Z,13.57
2019-03-28T12:22:43.542Z,13.53
2019-03-28T12:25:13.563Z,13.43
2019-03-28T12:27:42.956Z,13.13
2019-03-28T12:30:16.163Z,13.87
2019-03-28T12:32:45.964Z,12.30
2019-03-28T12:35:15.458Z,12.37
2019-03-28T12:37:44.851Z,13.03
2019-03-28T12:40:14.979Z,12.97
2019-03-28T12:42:44.377Z,11.97
2019-03-28T12:45:14.662Z,11.90
2019-03-28T12:47:44.072Z,12.40
2019-03-28T12:50:14.555Z,11.37
2019-03-28T12:52:44.915Z,12.37
2019-03-28T12:55:15.263Z,12.07
2019-03-28T12:57:44.689Z,11.63
2019-03-28T13:00:15.705Z,10.73
2019-03-28T13:02:45.112Z,12.37
2019-03-28T13:05:14.746Z,12.90
2019-03-28T13:07:44.148Z,12.33
2019-03-28T13:10:14.351Z,12.30
2019-03-28T13:12:43.749Z,12.90
2019-03-28T13:15:13.606Z,13.07
2019-03-28T13:17:43.056Z,12.57
2019-03-28T13:20:13.051Z,12.13
2019-03-28T13:22:42.448Z,13.00
2019-03-28T13:25:13.546Z,13.47
2019-03-28T13:27:42.917Z,13.23
2019-03-28T13:30:14.598Z,32.17
2019-03-28T13:32:43.965Z,27.63
2019-03-28T13:35:13.451Z,19.17
2019-03-28T13:37:42.805Z,19.40
2019-03-28T13:40:13.954Z,13.17
2019-03-28T13:42:43.300Z,10.80
2019-03-28T13:45:14.953Z,11.07
2019-03-28T13:47:44.314Z,10.93
2019-03-28T13:50:17.056Z,10.77
2019-03-28T13:52:46.472Z,11.37
2019-03-28T13:55:15.815Z,11.37
2019-03-28T13:57:45.514Z,10.50
2019-03-28T14:00:20.708Z,11.07
2019-03-28T14:02:58.422Z,9.03
2019-03-28T14:05:21.145Z,10.03
2019-03-28T14:07:50.489Z,9.57
2019-03-28T14:10:21.770Z,9.50
2019-03-28T14:12:50.908Z,9.57
2019-03-28T14:15:20.255Z,7.77
2019-03-28T14:17:49.610Z,8.10
2019-03-28T14:20:22.195Z,9.40
2019-03-28T14:22:50.184Z,7.67
2019-03-28T14:25:19.540Z,8.07
2019-03-28T14:27:48.891Z,7.63
2019-03-28T14:30:18.315Z,8.47
2019-03-28T14:32:53.666Z,8.33
2019-03-28T14:35:18.732Z,8.43
2019-03-28T14:37:48.079Z,9.00
2019-03-28T14:40:17.633Z,7.67
2019-03-28T14:42:46.972Z,7.47
2019-03-28T14:45:16.391Z,7.43
2019-03-28T14:47:45.726Z,7.83
2019-03-28T14:50:16.778Z,8.03
2019-03-28T14:52:46.590Z,8.07
2019-03-28T14:55:15.949Z,6.87
2019-03-28T14:57:45.998Z,8.10
2019-03-28T15:00:47.078Z,8.17
2019-03-28T15:03:25.598Z,7.13
2019-03-28T15:05:48.465Z,7.17
2019-03-28T15:08:18.143Z,8.43
2019-03-28T15:10:47.623Z,7.20
2019-03-28T15:13:18.027Z,6.73
2019-03-28T15:15:47.390Z,7.43
2019-03-28T15:18:16.750Z,6.60
2019-03-28T15:20:46.106Z,7.10
2019-03-28T15:23:15.478Z,5.80
2019-03-28T15:25:44.814Z,6.10
2019-03-28T15:28:14.160Z,5.73
2019-03-28T15:30:43.498Z,5.47
2019-03-28T15:33:12.850Z,5.47
2019-03-28T15:35:42.199Z,5.37
2019-03-28T15:38:11.536Z,5.13
2019-03-28T15:40:40.892Z,5.70
2019-03-28T15:43:10.242Z,5.50
2019-03-28T15:45:39.579Z,5.03
2019-03-28T15:48:09.902Z,4.43
2019-03-28T15:50:39.542Z,4.67
2019-03-28T15:53:08.883Z,5.17
2019-03-28T15:55:38.275Z,5.07
2019-03-28T15:58:07.689Z,4.70
2019-03-28T16:00:37.022Z,4.70
2019-03-28T16:03:06.363Z,4.70
2019-03-28T16:05:36.038Z,4.63
2019-03-28T16:08:05.377Z,4.60
2019-03-28T16:10:34.749Z,3.90
2019-03-28T16:13:04.084Z,4.40
2019-03-28T16:15:33.439Z,4.23
2019-03-28T16:18:02.782Z,4.30
2019-03-28T16:20:32.178Z,4.00
2019-03-28T16:23:01.516Z,3.80
2019-03-28T16:25:30.858Z,4.90
2019-03-28T16:28:00.205Z,5.63
2019-03-28T16:30:37.928Z,4.80
2019-03-28T16:33:07.868Z,3.83
2019-03-28T16:35:37.209Z,4.03
2019-03-28T16:38:06.559Z,3.87
2019-03-28T16:40:35.960Z,3.47
2019-03-28T16:43:05.434Z,3.60
2019-03-28T16:45:34.773Z,3.97
2019-03-28T16:48:04.380Z,3.30
2019-03-28T16:50:34.186Z,3.83
2019-03-28T16:53:03.736Z,3.40
2019-03-28T16:55:33.151Z,3.60
2019-03-28T16:58:02.485Z,3.47
2019-03-28T17:00:37.687Z,3.23
2019-03-28T17:03:07.430Z,3.40
2019-03-28T17:05:37.253Z,3.70
2019-03-28T17:08:07.099Z,4.10
2019-03-28T17:10:48.854Z,3.60
2019-03-28T17:13:20.307Z,4.00
2019-03-28T17:15:51.000Z,3.53
2019-03-28T17:18:20.903Z,3.40
2019-03-28T17:20:50.242Z,3.80
2019-03-28T17:23:19.916Z,3.50
2019-03-28T17:25:49.328Z,3.67
2019-03-28T17:28:18.897Z,3.90
2019-03-28T17:30:48.241Z,3.93
2019-03-28T17:33:18.598Z,3.93
2019-03-28T17:35:47.941Z,4.07
2019-03-28T17:38:17.657Z,3.97
2019-03-28T17:40:46.991Z,3.47
2019-03-28T17:43:16.324Z,4.43
2019-03-28T17:45:45.662Z,3.43
2019-03-28T17:48:15.147Z,3.80
2019-03-28T17:50:44.474Z,3.47
2019-03-28T17:53:13.816Z,3.97
2019-03-28T17:55:43.156Z,4.97
2019-03-28T17:58:12.498Z,5.40
2019-03-28T18:00:43.488Z,5.47
2019-03-28T18:03:12.827Z,5.43
2019-03-28T18:05:42.761Z,5.50
2019-03-28T18:08:12.082Z,5.53
2019-03-28T18:10:41.418Z,5.00
2019-03-28T18:13:10.758Z,6.10
2019-03-28T18:15:40.097Z,6.03
2019-03-28T18:18:11.882Z,6.17
2019-03-28T18:20:40.506Z,6.37
2019-03-28T18:23:09.846Z,6.47
2019-03-28T18:25:39.189Z,6.10
2019-03-28T18:28:09.659Z,6.83
2019-03-28T18:30:39.117Z,5.77
2019-03-28T18:33:08.530Z,6.83
2019-03-28T18:35:37.871Z,5.97
2019-03-28T18:38:07.247Z,7.63
2019-03-28T18:40:36.590Z,6.47
2019-03-28T18:43:05.930Z,7.13
2019-03-28T18:45:35.270Z,7.20
2019-03-28T18:48:04.683Z,6.57
2019-03-28T18:50:34.028Z,6.53
2019-03-28T18:53:03.374Z,6.83
2019-03-28T18:55:32.713Z,7.53
2019-03-28T18:58:02.147Z,7.13
2019-03-28T19:00:31.487Z,8.70
2019-03-28T19:03:00.833Z,7.80
2019-03-28T19:05:30.191Z,9.47
2019-03-28T19:07:59.543Z,10.53
2019-03-28T19:10:28.887Z,8.93
2019-03-28T19:12:58.239Z,10.33
2019-03-28T19:15:27.581Z,9.43
2019-03-28T19:17:56.935Z,10.47
2019-03-28T19:20:26.297Z,9.10
2019-03-28T19:22:56.054Z,9.07
2019-03-28T19:25:25.418Z,9.27
2019-03-28T19:27:54.761Z,8.17
2019-03-28T19:30:33.138Z,7.53
2019-03-28T19:33:02.546Z,7.57
2019-03-28T19:35:33.531Z,7.00
2019-03-28T19:38:04.808Z,6.63
2019-03-28T19:40:34.147Z,7.70
2019-03-28T19:43:03.495Z,6.60
2019-03-28T19:45:36.361Z,6.43
2019-03-28T19:48:07.249Z,6.57
2019-03-28T19:50:37.674Z,7.00
2019-03-28T19:53:07.355Z,7.93
2019-03-28T19:55:39.764Z,7.43
2019-03-28T19:58:09.474Z,7.10
2019-03-28T20:00:38.815Z,7.23
2019-03-28T20:03:08.154Z,7.97
2019-03-28T20:05:47.363Z,9.23
2019-03-28T20:08:15.418Z,7.10
2019-03-28T20:10:39.651Z,8.00
2019-03-28T20:13:09.002Z,7.97
2019-03-28T20:15:38.412Z,7.60
2019-03-28T20:18:07.755Z,7.37
2019-03-28T20:20:37.095Z,8.27
2019-03-28T20:23:06.514Z,7.43
2019-03-28T20:25:36.115Z,9.03
2019-03-28T20:28:05.462Z,8.37
2019-03-28T20:30:34.874Z,8.60
2019-03-28T20:33:04.214Z,10.20
2019-03-28T20:35:33.554Z,9.53
2019-03-28T20:38:03.718Z,9.83
2019-03-28T20:40:33.279Z,8.67
2019-03-28T20:43:02.622Z,8.57
2019-03-28T20:45:32.013Z,9.47
2019-03-28T20:48:01.361Z,8.47
2019-03-28T20:50:31.854Z,9.43
2019-03-28T20:53:01.213Z,9.47
2019-03-28T20:55:30.555Z,9.30
2019-03-28T20:57:59.910Z,9.37
2019-03-28T21:00:39.651Z,9.43
2019-03-28T21:03:09.063Z,9.03
2019-03-28T21:05:39.649Z,8.97
2019-03-28T21:08:08.988Z,10.87
2019-03-28T21:10:38.491Z,9.60
2019-03-28T21:13:07.837Z,8.30
2019-03-28T21:15:37.182Z,8.43
2019-03-28T21:18:06.698Z,8.53
2019-03-28T21:20:36.195Z,8.83
2019-03-28T21:23:06.065Z,9.60
2019-03-28T21:25:35.411Z,9.80
2019-03-28T21:28:04.909Z,9.17
2019-03-28T21:30:46.710Z,8.70
2019-03-28T21:33:05.447Z,9.23
2019-03-28T21:35:34.782Z,8.77
2019-03-28T21:38:04.123Z,8.23
2019-03-28T21:40:33.483Z,7.70
2019-03-28T21:43:02.819Z,9.20
2019-03-28T21:45:32.164Z,9.27
2019-03-28T21:48:01.502Z,8.30
2019-03-28T21:50:30.843Z,8.03
2019-03-28T21:53:00.178Z,7.37
2019-03-28T21:55:29.512Z,8.20
2019-03-28T21:57:58.937Z,7.73
2019-03-28T22:00:28.284Z,8.10
2019-03-28T22:02:57.620Z,7.23
2019-03-28T22:05:28.798Z,8.93
2019-03-28T22:07:58.030Z,8.80
2019-03-28T22:10:27.365Z,7.40
2019-03-28T22:12:56.990Z,8.40
2019-03-28T22:15:26.330Z,9.30
2019-03-28T22:17:55.672Z,9.30
2019-03-28T22:20:25.016Z,9.13
2019-03-28T22:22:55.063Z,7.90
2019-03-28T22:25:24.491Z,8.93
2019-03-28T22:27:53.822Z,8.57
2019-03-28T22:30:23.171Z,8.17
2019-03-28T22:32:52.509Z,9.07
2019-03-28T22:35:21.844Z,9.00
2019-03-28T22:37:51.181Z,8.87
2019-03-28T22:40:20.685Z,8.53
2019-03-28T22:42:50.025Z,8.30
2019-03-28T22:45:19.366Z,8.63
2019-03-28T22:47:48.707Z,8.23
2019-03-28T22:50:18.062Z,9.20
2019-03-28T22:52:47.403Z,10.63
2019-03-28T22:55:17.154Z,9.40
2019-03-28T22:57:46.607Z,8.73
2019-03-28T23:00:18.791Z,10.53
2019-03-28T23:02:48.493Z,10.33
2019-03-28T23:05:18.842Z,10.30
2019-03-28T23:07:48.207Z,10.10
2019-03-28T23:10:20.876Z,9.07
2019-03-28T23:12:49.057Z,8.30
2019-03-28T23:15:21.800Z,9.00
2019-03-28T23:17:49.697Z,9.40
2019-03-28T23:20:19.128Z,9.83
2019-03-28T23:22:48.460Z,9.07
2019-03-28T23:25:17.799Z,8.87
2019-03-28T23:27:47.141Z,10.27
2019-03-28T23:30:16.646Z,10.17
2019-03-28T23:32:45.989Z,10.00
2019-03-28T23:35:15.327Z,8.70
2019-03-28T23:37:44.922Z,9.83
2019-03-28T23:40:14.426Z,8.67
2019-03-28T23:42:43.983Z,8.93
2019-03-28T23:45:14.285Z,8.57
2019-03-28T23:47:43.897Z,8.93
2019-03-28T23:50:13.529Z,9.53
2019-03-28T23:52:43.086Z,7.90
2019-03-28T23:55:12.659Z,8.33
2019-03-28T23:57:42.089Z,8.27
